sensor_id;sensor_type;location;lat;lon;timestamp;pressure;altitude;pressure_sealevel;temperature
60731;BMP280;46580;52.114;11.674;2022-09-20T00:02:23;101220.41;;;10.76
60731;BMP280;46580;52.114;11.674;2022-09-20T00:04:49;101213.69;;;10.73
60731;BMP280;46580;52.114;11.674;2022-09-20T00:07:14;101217.63;;;10.66
60731;BMP280;46580;52.114;11.674;2022-09-20T00:09:39;101215.38;;;10.62
60731;BMP280;46580;52.114;11.674;2022-09-20T00:12:05;101213.22;;;10.56
60731;BMP280;46580;52.114;11.674;2022-09-20T00:14:31;101220.22;;;10.54
60731;BMP280;46580;52.114;11.674;2022-09-20T00:16:56;101224.03;;;10.49
60731;BMP280;46580;52.114;11.674;2022-09-20T00:19:21;101224.31;;;10.44
60731;BMP280;46580;52.114;11.674;2022-09-20T00:21:47;101227.13;;;10.41
60731;BMP280;46580;52.114;11.674;2022-09-20T00:24:13;101230.09;;;10.36
60731;BMP280;46580;52.114;11.674;2022-09-20T00:26:38;101226.91;;;10.32
60731;BMP280;46580;52.114;11.674;2022-09-20T00:29:04;101233.09;;;10.30
60731;BMP280;46580;52.114;11.674;2022-09-20T00:31:30;101237.41;;;10.29
60731;BMP280;46580;52.114;11.674;2022-09-20T00:33:56;101236.78;;;10.26
60731;BMP280;46580;52.114;11.674;2022-09-20T00:36:42;101246.56;;;10.21
60731;BMP280;46580;52.114;11.674;2022-09-20T00:39:10;101238.09;;;10.19
60731;BMP280;46580;52.114;11.674;2022-09-20T00:41:36;101246.03;;;10.16
60731;BMP280;46580;52.114;11.674;2022-09-20T00:44:01;101245.41;;;10.13
60731;BMP280;46580;52.114;11.674;2022-09-20T00:46:47;101243.16;;;10.08
60731;BMP280;46580;52.114;11.674;2022-09-20T00:49:16;101239.84;;;10.06
60731;BMP280;46580;52.114;11.674;2022-09-20T00:51:46;101239.13;;;10.04
60731;BMP280;46580;52.114;11.674;2022-09-20T00:54:14;101245.38;;;10.01
60731;BMP280;46580;52.114;11.674;2022-09-20T00:56:42;101241.25;;;9.98
60731;BMP280;46580;52.114;11.674;2022-09-20T00:59:23;101249.28;;;9.94
60731;BMP280;46580;52.114;11.674;2022-09-20T01:02:05;101238.25;;;9.92
60731;BMP280;46580;52.114;11.674;2022-09-20T01:04:34;101241.06;;;9.89
60731;BMP280;46580;52.114;11.674;2022-09-20T01:07:01;101240.84;;;9.92
60731;BMP280;46580;52.114;11.674;2022-09-20T01:09:27;101246.38;;;9.86
60731;BMP280;46580;52.114;11.674;2022-09-20T01:11:54;101237.00;;;9.85
60731;BMP280;46580;52.114;11.674;2022-09-20T01:14:20;101247.31;;;9.85
60731;BMP280;46580;52.114;11.674;2022-09-20T01:16:48;101239.59;;;9.85
60731;BMP280;46580;52.114;11.674;2022-09-20T01:19:37;101247.31;;;9.85
60731;BMP280;46580;52.114;11.674;2022-09-20T01:22:15;101246.38;;;9.86
60731;BMP280;46580;52.114;11.674;2022-09-20T01:24:51;101242.16;;;9.85
60731;BMP280;46580;52.114;11.674;2022-09-20T01:27:35;101253.38;;;9.84
60731;BMP280;46580;52.114;11.674;2022-09-20T01:30:10;101245.56;;;9.85
60731;BMP280;46580;52.114;11.674;2022-09-20T01:33:23;101253.38;;;9.84
60731;BMP280;46580;52.114;11.674;2022-09-20T01:35:52;101255.84;;;9.85
60731;BMP280;46580;52.114;11.674;2022-09-20T01:41:10;101252.75;;;9.81
60731;BMP280;46580;52.114;11.674;2022-09-20T01:44:13;101251.84;;;9.82
60731;BMP280;46580;52.114;11.674;2022-09-20T01:46:42;101254.41;;;9.82
60731;BMP280;46580;52.114;11.674;2022-09-20T02:00:22;101250.28;;;9.79
60731;BMP280;46580;52.114;11.674;2022-09-20T02:09:24;101267.50;;;9.77
60731;BMP280;46580;52.114;11.674;2022-09-20T02:16:55;101257.22;;;9.77
60731;BMP280;46580;52.114;11.674;2022-09-20T02:19:45;101264.03;;;9.78
60731;BMP280;46580;52.114;11.674;2022-09-20T02:22:29;101267.34;;;9.80
60731;BMP280;46580;52.114;11.674;2022-09-20T02:33:34;101272.31;;;9.83
60731;BMP280;46580;52.114;11.674;2022-09-20T02:36:34;101278.06;;;9.86
60731;BMP280;46580;52.114;11.674;2022-09-20T02:47:18;101282.19;;;9.89
60731;BMP280;46580;52.114;11.674;2022-09-20T02:59:07;101286.13;;;9.94
60731;BMP280;46580;52.114;11.674;2022-09-20T03:18:13;101289.72;;;10.04
60731;BMP280;46580;52.114;11.674;2022-09-20T03:23:38;101292.84;;;10.09
60731;BMP280;46580;52.114;11.674;2022-09-20T03:29:04;101292.00;;;10.08
60731;BMP280;46580;52.114;11.674;2022-09-20T03:42:50;101310.13;;;10.19
60731;BMP280;46580;52.114;11.674;2022-09-20T03:50:48;101305.13;;;10.30
60731;BMP280;46580;52.114;11.674;2022-09-20T03:53:30;101305.22;;;10.28
60731;BMP280;46580;52.114;11.674;2022-09-20T03:58:59;101302.22;;;10.22
60731;BMP280;46580;52.114;11.674;2022-09-20T04:04:29;101311.47;;;10.24
60731;BMP280;46580;52.114;11.674;2022-09-20T04:07:04;101311.69;;;10.22
60731;BMP280;46580;52.114;11.674;2022-09-20T04:21:07;101311.88;;;10.19
60731;BMP280;46580;52.114;11.674;2022-09-20T04:26:02;101317.88;;;10.31
60731;BMP280;46580;52.114;11.674;2022-09-20T04:28:46;101321.78;;;10.24
60731;BMP280;46580;52.114;11.674;2022-09-20T04:31:32;101327.75;;;10.25
60731;BMP280;46580;52.114;11.674;2022-09-20T04:34:01;101321.91;;;10.23
60731;BMP280;46580;52.114;11.674;2022-09-20T04:56:00;101340.59;;;10.25
60731;BMP280;46580;52.114;11.674;2022-09-20T04:58:48;101346.47;;;10.27
60731;BMP280;46580;52.114;11.674;2022-09-20T05:34:47;101384.50;;;10.36
60731;BMP280;46580;52.114;11.674;2022-09-20T05:37:34;101382.09;;;10.33
60731;BMP280;46580;52.114;11.674;2022-09-20T05:43:12;101382.31;;;10.30
60731;BMP280;46580;52.114;11.674;2022-09-20T05:48:38;101389.34;;;10.40
60731;BMP280;46580;52.114;11.674;2022-09-20T05:51:35;101386.69;;;10.54
60731;BMP280;46580;52.114;11.674;2022-09-20T05:59:36;101392.84;;;10.51
60731;BMP280;46580;52.114;11.674;2022-09-20T06:02:26;101390.69;;;10.45
60731;BMP280;46580;52.114;11.674;2022-09-20T06:05:07;101395.63;;;10.48
60731;BMP280;46580;52.114;11.674;2022-09-20T06:16:00;101403.47;;;10.59
60731;BMP280;46580;52.114;11.674;2022-09-20T06:23:49;101405.88;;;10.62
60731;BMP280;46580;52.114;11.674;2022-09-20T06:26:18;101412.66;;;10.63
60731;BMP280;46580;52.114;11.674;2022-09-20T06:28:51;101410.00;;;10.64
60731;BMP280;46580;52.114;11.674;2022-09-20T06:31:19;101411.03;;;10.74
60731;BMP280;46580;52.114;11.674;2022-09-20T06:33:52;101416.81;;;10.77
60731;BMP280;46580;52.114;11.674;2022-09-20T06:36:27;101414.25;;;10.77
60731;BMP280;46580;52.114;11.674;2022-09-20T06:42:21;101418.66;;;10.76
60731;BMP280;46580;52.114;11.674;2022-09-20T06:44:46;101429.69;;;10.77
60731;BMP280;46580;52.114;11.674;2022-09-20T06:47:13;101429.56;;;10.79
60731;BMP280;46580;52.114;11.674;2022-09-20T06:49:38;101428.56;;;10.81
60731;BMP280;46580;52.114;11.674;2022-09-20T06:52:10;101433.81;;;10.92
60731;BMP280;46580;52.114;11.674;2022-09-20T06:54:36;101437.34;;;10.91
60731;BMP280;46580;52.114;11.674;2022-09-20T06:57:03;101438.44;;;10.87
60731;BMP280;46580;52.114;11.674;2022-09-20T06:59:30;101438.84;;;10.81
60731;BMP280;46580;52.114;11.674;2022-09-20T07:01:56;101443.59;;;10.87
60731;BMP280;46580;52.114;11.674;2022-09-20T07:04:21;101441.94;;;10.86
60731;BMP280;46580;52.114;11.674;2022-09-20T07:06:51;101440.50;;;10.82
60731;BMP280;46580;52.114;11.674;2022-09-20T07:09:17;101444.00;;;10.81
60731;BMP280;46580;52.114;11.674;2022-09-20T07:11:42;101445.06;;;10.91
60731;BMP280;46580;52.114;11.674;2022-09-20T07:14:10;101446.31;;;10.98
60731;BMP280;46580;52.114;11.674;2022-09-20T07:16:35;101447.94;;;10.99
60731;BMP280;46580;52.114;11.674;2022-09-20T07:19:02;101452.59;;;11.06
60731;BMP280;46580;52.114;11.674;2022-09-20T07:21:27;101455.19;;;11.18
60731;BMP280;46580;52.114;11.674;2022-09-20T07:23:52;101458.28;;;11.23
60731;BMP280;46580;52.114;11.674;2022-09-20T07:26:24;101462.63;;;11.35
60731;BMP280;46580;52.114;11.674;2022-09-20T07:28:51;101461.81;;;11.34
60731;BMP280;46580;52.114;11.674;2022-09-20T07:31:17;101470.47;;;11.33
60731;BMP280;46580;52.114;11.674;2022-09-20T07:33:43;101467.84;;;11.21
60731;BMP280;46580;52.114;11.674;2022-09-20T07:36:09;101463.44;;;11.23
60731;BMP280;46580;52.114;11.674;2022-09-20T07:38:36;101471.84;;;11.13
60731;BMP280;46580;52.114;11.674;2022-09-20T07:41:02;101470.13;;;11.14
60731;BMP280;46580;52.114;11.674;2022-09-20T07:43:29;101464.75;;;11.16
60731;BMP280;46580;52.114;11.674;2022-09-20T07:45:55;101479.91;;;11.21
60731;BMP280;46580;52.114;11.674;2022-09-20T07:48:23;101474.97;;;11.18
60731;BMP280;46580;52.114;11.674;2022-09-20T07:50:58;101481.41;;;11.37
60731;BMP280;46580;52.114;11.674;2022-09-20T07:53:24;101480.53;;;11.85
60731;BMP280;46580;52.114;11.674;2022-09-20T07:56:08;101474.75;;;11.82
60731;BMP280;46580;52.114;11.674;2022-09-20T07:58:34;101473.63;;;11.86
60731;BMP280;46580;52.114;11.674;2022-09-20T08:01:05;101475.56;;;11.94
60731;BMP280;46580;52.114;11.674;2022-09-20T08:03:32;101484.03;;;11.84
60731;BMP280;46580;52.114;11.674;2022-09-20T08:06:05;101492.19;;;11.66
60731;BMP280;46580;52.114;11.674;2022-09-20T08:08:32;101494.50;;;11.58
60731;BMP280;46580;52.114;11.674;2022-09-20T08:13:29;101498.09;;;11.68
60731;BMP280;46580;52.114;11.674;2022-09-20T08:16:02;101491.69;;;11.86
60731;BMP280;46580;52.114;11.674;2022-09-20T08:18:28;101489.16;;;12.08
60731;BMP280;46580;52.114;11.674;2022-09-20T08:20:53;101501.31;;;12.19
60731;BMP280;46580;52.114;11.674;2022-09-20T08:23:19;101501.31;;;12.19
60731;BMP280;46580;52.114;11.674;2022-09-20T08:25:44;101506.72;;;12.26
60731;BMP280;46580;52.114;11.674;2022-09-20T08:28:12;101504.53;;;12.10
60731;BMP280;46580;52.114;11.674;2022-09-20T08:30:38;101508.25;;;11.94
60731;BMP280;46580;52.114;11.674;2022-09-20T08:33:03;101515.81;;;11.97
60731;BMP280;46580;52.114;11.674;2022-09-20T08:35:28;101518.00;;;12.26
60731;BMP280;46580;52.114;11.674;2022-09-20T08:37:54;101506.81;;;12.37
60731;BMP280;46580;52.114;11.674;2022-09-20T08:40:21;101512.56;;;12.53
60731;BMP280;46580;52.114;11.674;2022-09-20T08:42:48;101512.53;;;12.65
60731;BMP280;46580;52.114;11.674;2022-09-20T08:45:17;101513.78;;;12.47
60731;BMP280;46580;52.114;11.674;2022-09-20T08:47:50;101506.09;;;12.70
60731;BMP280;46580;52.114;11.674;2022-09-20T08:50:18;101519.78;;;12.48
60731;BMP280;46580;52.114;11.674;2022-09-20T08:52:46;101517.03;;;12.62
60731;BMP280;46580;52.114;11.674;2022-09-20T08:57:40;101523.38;;;12.58
60731;BMP280;46580;52.114;11.674;2022-09-20T09:00:09;101514.91;;;12.56
60731;BMP280;46580;52.114;11.674;2022-09-20T09:02:40;101516.41;;;12.93
60731;BMP280;46580;52.114;11.674;2022-09-20T09:05:36;101523.28;;;12.82
60731;BMP280;46580;52.114;11.674;2022-09-20T09:08:12;101518.53;;;12.99
60731;BMP280;46580;52.114;11.674;2022-09-20T09:10:45;101520.47;;;12.85
60731;BMP280;46580;52.114;11.674;2022-09-20T09:13:19;101525.53;;;12.64
60731;BMP280;46580;52.114;11.674;2022-09-20T09:15:50;101529.78;;;12.64
60731;BMP280;46580;52.114;11.674;2022-09-20T09:18:17;101533.50;;;12.83
60731;BMP280;46580;52.114;11.674;2022-09-20T09:20:42;101521.69;;;12.92
60731;BMP280;46580;52.114;11.674;2022-09-20T09:23:21;101529.47;;;13.02
60731;BMP280;46580;52.114;11.674;2022-09-20T09:25:50;101527.50;;;13.06
60731;BMP280;46580;52.114;11.674;2022-09-20T09:28:21;101524.38;;;13.24
60731;BMP280;46580;52.114;11.674;2022-09-20T09:30:47;101530.94;;;13.17
60731;BMP280;46580;52.114;11.674;2022-09-20T09:35:51;101538.84;;;12.93
60731;BMP280;46580;52.114;11.674;2022-09-20T09:38:29;101537.00;;;13.05
60731;BMP280;46580;52.114;11.674;2022-09-20T09:40:57;101544.97;;;13.02
60731;BMP280;46580;52.114;11.674;2022-09-20T09:43:26;101543.00;;;13.06
60731;BMP280;46580;52.114;11.674;2022-09-20T09:45:55;101550.59;;;13.30
60731;BMP280;46580;52.114;11.674;2022-09-20T09:51:11;101545.25;;;13.10
60731;BMP280;46580;52.114;11.674;2022-09-20T09:53:39;101545.50;;;12.84
60731;BMP280;46580;52.114;11.674;2022-09-20T09:58:50;101543.94;;;13.05
60731;BMP280;46580;52.114;11.674;2022-09-20T10:01:30;101545.50;;;13.18
60731;BMP280;46580;52.114;11.674;2022-09-20T10:07:20;101541.34;;;13.05
60731;BMP280;46580;52.114;11.674;2022-09-20T10:10:15;101543.16;;;13.59
60731;BMP280;46580;52.114;11.674;2022-09-20T10:13:01;101545.19;;;13.88
60731;BMP280;46580;52.114;11.674;2022-09-20T10:15:40;101552.28;;;14.08
60731;BMP280;46580;52.114;11.674;2022-09-20T10:32:53;101544.75;;;13.94
60731;BMP280;46580;52.114;11.674;2022-09-20T10:40:52;101551.03;;;14.44
60731;BMP280;46580;52.114;11.674;2022-09-20T10:43:55;101548.00;;;14.39
60731;BMP280;46580;52.114;11.674;2022-09-20T10:47:00;101553.09;;;14.08
60731;BMP280;46580;52.114;11.674;2022-09-20T10:49:34;101545.06;;;13.90
60731;BMP280;46580;52.114;11.674;2022-09-20T10:54:35;101550.38;;;13.99
60731;BMP280;46580;52.114;11.674;2022-09-20T10:59:56;101552.38;;;14.06
60731;BMP280;46580;52.114;11.674;2022-09-20T11:03:50;101560.22;;;14.37
60731;BMP280;46580;52.114;11.674;2022-09-20T11:05:57;101559.31;;;14.27
60731;BMP280;46580;52.114;11.674;2022-09-20T11:08:29;101566.84;;;14.19
60731;BMP280;46580;52.114;11.674;2022-09-20T11:11:00;101556.66;;;14.59
60731;BMP280;46580;52.114;11.674;2022-09-20T11:13:44;101560.53;;;14.65
60731;BMP280;46580;52.114;11.674;2022-09-20T11:16:17;101562.22;;;14.96
60731;BMP280;46580;52.114;11.674;2022-09-20T11:18:48;101552.16;;;15.33
60731;BMP280;46580;52.114;11.674;2022-09-20T11:21:18;101550.31;;;15.44
60731;BMP280;46580;52.114;11.674;2022-09-20T11:24:01;101557.97;;;15.46
60731;BMP280;46580;52.114;11.674;2022-09-20T11:26:45;101569.31;;;14.84
60731;BMP280;46580;52.114;11.674;2022-09-20T11:31:55;101545.88;;;14.96
60731;BMP280;46580;52.114;11.674;2022-09-20T11:34:28;101551.97;;;15.25
60731;BMP280;46580;52.114;11.674;2022-09-20T11:39:26;101552.94;;;15.94
60731;BMP280;46580;52.114;11.674;2022-09-20T11:41:57;101555.22;;;15.87
60731;BMP280;46580;52.114;11.674;2022-09-20T11:44:28;101557.09;;;15.76
60731;BMP280;46580;52.114;11.674;2022-09-20T11:57:28;101554.91;;;16.30
60731;BMP280;46580;52.114;11.674;2022-09-20T11:59:56;101546.44;;;16.47
60731;BMP280;46580;52.114;11.674;2022-09-20T12:02:47;101546.47;;;16.65
60731;BMP280;46580;52.114;11.674;2022-09-20T12:05:35;101538.38;;;16.40
60731;BMP280;46580;52.114;11.674;2022-09-20T12:08:05;101546.09;;;16.70
60731;BMP280;46580;52.114;11.674;2022-09-20T12:10:35;101549.13;;;16.84
60731;BMP280;46580;52.114;11.674;2022-09-20T12:13:07;101540.25;;;17.14
60731;BMP280;46580;52.114;11.674;2022-09-20T12:15:42;101542.03;;;16.95
60731;BMP280;46580;52.114;11.674;2022-09-20T12:21:00;101546.53;;;17.12
60731;BMP280;46580;52.114;11.674;2022-09-20T12:26:05;101541.31;;;17.39
60731;BMP280;46580;52.114;11.674;2022-09-20T12:28:42;101538.16;;;17.54
60731;BMP280;46580;52.114;11.674;2022-09-20T12:36:42;101528.44;;;17.47
60731;BMP280;46580;52.114;11.674;2022-09-20T12:57:53;101538.91;;;17.92
60731;BMP280;46580;52.114;11.674;2022-09-20T13:03:36;101533.28;;;17.87
60731;BMP280;46580;52.114;11.674;2022-09-20T13:11:42;101541.34;;;17.30
60731;BMP280;46580;52.114;11.674;2022-09-20T13:16:52;101535.28;;;17.48
60731;BMP280;46580;52.114;11.674;2022-09-20T13:19:21;101545.31;;;17.97
60731;BMP280;46580;52.114;11.674;2022-09-20T13:24:27;101531.53;;;17.69
60731;BMP280;46580;52.114;11.674;2022-09-20T13:26:59;101542.75;;;17.79
60731;BMP280;46580;52.114;11.674;2022-09-20T13:29:38;101539.00;;;18.00
60731;BMP280;46580;52.114;11.674;2022-09-20T13:32:21;101545.84;;;18.01
60731;BMP280;46580;52.114;11.674;2022-09-20T13:35:07;101541.19;;;18.30
60731;BMP280;46580;52.114;11.674;2022-09-20T13:37:44;101530.78;;;18.47
60731;BMP280;46580;52.114;11.674;2022-09-20T13:40:25;101529.31;;;18.19
60731;BMP280;46580;52.114;11.674;2022-09-20T13:42:59;101526.78;;;17.55
60731;BMP280;46580;52.114;11.674;2022-09-20T13:45:25;101534.16;;;17.60
60731;BMP280;46580;52.114;11.674;2022-09-20T13:47:53;101532.56;;;17.94
60731;BMP280;46580;52.114;11.674;2022-09-20T13:52:52;101524.63;;;18.22
60731;BMP280;46580;52.114;11.674;2022-09-20T13:55:29;101529.44;;;17.82
60731;BMP280;46580;52.114;11.674;2022-09-20T13:57:58;101524.31;;;17.54
60731;BMP280;46580;52.114;11.674;2022-09-20T14:00:24;101523.09;;;17.93
60731;BMP280;46580;52.114;11.674;2022-09-20T14:02:51;101522.16;;;18.21
60731;BMP280;46580;52.114;11.674;2022-09-20T14:05:21;101521.78;;;18.16
60731;BMP280;46580;52.114;11.674;2022-09-20T14:07:49;101527.69;;;18.18
60731;BMP280;46580;52.114;11.674;2022-09-20T14:10:35;101532.44;;;17.96
60731;BMP280;46580;52.114;11.674;2022-09-20T14:13:04;101535.66;;;17.71
60731;BMP280;46580;52.114;11.674;2022-09-20T14:15:43;101530.91;;;17.49
60731;BMP280;46580;52.114;11.674;2022-09-20T14:18:16;101528.34;;;17.75
60731;BMP280;46580;52.114;11.674;2022-09-20T14:20:43;101527.13;;;17.79
60731;BMP280;46580;52.114;11.674;2022-09-20T14:26:22;101538.03;;;18.01
60731;BMP280;46580;52.114;11.674;2022-09-20T14:28:48;101542.06;;;17.86
60731;BMP280;46580;52.114;11.674;2022-09-20T14:31:27;101535.16;;;18.04
60731;BMP280;46580;52.114;11.674;2022-09-20T14:33:57;101542.25;;;18.11
60731;BMP280;46580;52.114;11.674;2022-09-20T14:36:25;101532.63;;;17.85
60731;BMP280;46580;52.114;11.674;2022-09-20T14:38:57;101535.00;;;17.51
60731;BMP280;46580;52.114;11.674;2022-09-20T14:41:33;101530.31;;;17.64
60731;BMP280;46580;52.114;11.674;2022-09-20T14:43:59;101538.13;;;17.64
60731;BMP280;46580;52.114;11.674;2022-09-20T14:46:37;101538.28;;;17.62
60731;BMP280;46580;52.114;11.674;2022-09-20T14:51:51;101540.19;;;17.60
60731;BMP280;46580;52.114;11.674;2022-09-20T14:54:28;101545.72;;;17.20
60731;BMP280;46580;52.114;11.674;2022-09-20T14:56:56;101541.84;;;16.87
60731;BMP280;46580;52.114;11.674;2022-09-20T14:59:27;101536.78;;;16.86
60731;BMP280;46580;52.114;11.674;2022-09-20T15:02:02;101544.38;;;17.16
60731;BMP280;46580;52.114;11.674;2022-09-20T15:04:30;101539.97;;;17.26
60731;BMP280;46580;52.114;11.674;2022-09-20T15:07:01;101544.06;;;17.47
60731;BMP280;46580;52.114;11.674;2022-09-20T15:09:28;101544.09;;;17.38
60731;BMP280;46580;52.114;11.674;2022-09-20T15:12:26;101542.00;;;17.32
60731;BMP280;46580;52.114;11.674;2022-09-20T15:14:53;101549.94;;;17.49
60731;BMP280;46580;52.114;11.674;2022-09-20T15:17:20;101549.38;;;17.46
60731;BMP280;46580;52.114;11.674;2022-09-20T15:19:46;101551.50;;;17.24
60731;BMP280;46580;52.114;11.674;2022-09-20T15:22:12;101543.56;;;16.97
60731;BMP280;46580;52.114;11.674;2022-09-20T15:24:38;101544.31;;;16.79
60731;BMP280;46580;52.114;11.674;2022-09-20T15:27:04;101556.22;;;16.73
60731;BMP280;46580;52.114;11.674;2022-09-20T15:29:29;101555.53;;;16.71
60731;BMP280;46580;52.114;11.674;2022-09-20T15:31:55;101555.53;;;16.71
60731;BMP280;46580;52.114;11.674;2022-09-20T15:34:21;101556.63;;;16.68
60731;BMP280;46580;52.114;11.674;2022-09-20T15:36:47;101563.94;;;16.45
60731;BMP280;46580;52.114;11.674;2022-09-20T15:39:13;101565.53;;;16.27
60731;BMP280;46580;52.114;11.674;2022-09-20T15:41:38;101570.75;;;16.27
60731;BMP280;46580;52.114;11.674;2022-09-20T15:44:05;101570.50;;;16.30
60731;BMP280;46580;52.114;11.674;2022-09-20T15:46:31;101566.97;;;16.40
60731;BMP280;46580;52.114;11.674;2022-09-20T15:48:59;101569.06;;;16.65
60731;BMP280;46580;52.114;11.674;2022-09-20T15:51:25;101562.09;;;16.74
60731;BMP280;46580;52.114;11.674;2022-09-20T15:53:59;101559.69;;;17.01
60731;BMP280;46580;52.114;11.674;2022-09-20T15:56:30;101564.06;;;16.91
60731;BMP280;46580;52.114;11.674;2022-09-20T15:59:00;101567.63;;;16.90
60731;BMP280;46580;52.114;11.674;2022-09-20T16:01:33;101563.53;;;17.06
60731;BMP280;46580;52.114;11.674;2022-09-20T16:04:05;101570.66;;;17.04
60731;BMP280;46580;52.114;11.674;2022-09-20T16:06:31;101564.06;;;17.00
60731;BMP280;46580;52.114;11.674;2022-09-20T16:08:57;101566.50;;;16.92
60731;BMP280;46580;52.114;11.674;2022-09-20T16:11:22;101570.03;;;16.73
60731;BMP280;46580;52.114;11.674;2022-09-20T16:13:55;101572.50;;;16.74
60731;BMP280;46580;52.114;11.674;2022-09-20T16:16:20;101579.06;;;16.69
60731;BMP280;46580;52.114;11.674;2022-09-20T16:18:46;101578.22;;;16.59
60731;BMP280;46580;52.114;11.674;2022-09-20T16:21:30;101584.44;;;16.38
60731;BMP280;46580;52.114;11.674;2022-09-20T16:23:56;101588.34;;;16.15
60731;BMP280;46580;52.114;11.674;2022-09-20T16:26:24;101591.19;;;16.12
60731;BMP280;46580;52.114;11.674;2022-09-20T16:28:50;101590.50;;;16.10
60731;BMP280;46580;52.114;11.674;2022-09-20T16:34:00;101592.66;;;15.85
60731;BMP280;46580;52.114;11.674;2022-09-20T16:36:26;101598.22;;;15.81
60731;BMP280;46580;52.114;11.674;2022-09-20T16:38:52;101598.31;;;15.70
60731;BMP280;46580;52.114;11.674;2022-09-20T16:41:20;101604.44;;;15.69
60731;BMP280;46580;52.114;11.674;2022-09-20T16:43:50;101601.16;;;15.67
60731;BMP280;46580;52.114;11.674;2022-09-20T16:46:19;101603.34;;;15.51
60731;BMP280;46580;52.114;11.674;2022-09-20T16:48:55;101602.59;;;15.40
60731;BMP280;46580;52.114;11.674;2022-09-20T16:51:23;101610.78;;;15.36
60731;BMP280;46580;52.114;11.674;2022-09-20T16:53:50;101607.59;;;15.32
60731;BMP280;46580;52.114;11.674;2022-09-20T16:56:26;101615.75;;;15.28
60731;BMP280;46580;52.114;11.674;2022-09-20T16:58:52;101615.94;;;15.16
60731;BMP280;46580;52.114;11.674;2022-09-20T17:01:18;101618.31;;;15.08
60731;BMP280;46580;52.114;11.674;2022-09-20T17:03:44;101626.69;;;15.01
60731;BMP280;46580;52.114;11.674;2022-09-20T17:06:12;101624.34;;;14.98
60731;BMP280;46580;52.114;11.674;2022-09-20T17:08:38;101628.22;;;14.92
60731;BMP280;46580;52.114;11.674;2022-09-20T17:11:09;101634.13;;;14.84
60731;BMP280;46580;52.114;11.674;2022-09-20T17:13:38;101632.59;;;14.70
60731;BMP280;46580;52.114;11.674;2022-09-20T17:16:09;101637.22;;;14.67
60731;BMP280;46580;52.114;11.674;2022-09-20T17:18:35;101633.56;;;14.59
60731;BMP280;46580;52.114;11.674;2022-09-20T17:21:14;101634.16;;;14.51
60731;BMP280;46580;52.114;11.674;2022-09-20T17:23:41;101643.97;;;14.48
60731;BMP280;46580;52.114;11.674;2022-09-20T17:26:11;101650.66;;;14.50
60731;BMP280;46580;52.114;11.674;2022-09-20T17:28:40;101651.38;;;14.42
60731;BMP280;46580;52.114;11.674;2022-09-20T17:31:07;101656.56;;;14.42
60731;BMP280;46580;52.114;11.674;2022-09-20T17:33:35;101657.59;;;14.39
60731;BMP280;46580;52.114;11.674;2022-09-20T17:36:01;101660.56;;;14.35
60731;BMP280;46580;52.114;11.674;2022-09-20T17:38:32;101670.22;;;14.33
60731;BMP280;46580;52.114;11.674;2022-09-20T17:41:14;101665.50;;;14.27
60731;BMP280;46580;52.114;11.674;2022-09-20T17:43:41;101672.78;;;14.22
60731;BMP280;46580;52.114;11.674;2022-09-20T17:46:16;101679.13;;;14.18
60731;BMP280;46580;52.114;11.674;2022-09-20T17:48:52;101678.66;;;14.13
60731;BMP280;46580;52.114;11.674;2022-09-20T17:51:21;101673.59;;;14.12
60731;BMP280;46580;52.114;11.674;2022-09-20T17:53:48;101678.88;;;14.11
60731;BMP280;46580;52.114;11.674;2022-09-20T17:56:13;101685.81;;;14.10
60731;BMP280;46580;52.114;11.674;2022-09-20T17:58:40;101687.59;;;14.10
60731;BMP280;46580;52.114;11.674;2022-09-20T18:01:13;101690.63;;;14.04
60731;BMP280;46580;52.114;11.674;2022-09-20T18:03:46;101685.19;;;13.96
60731;BMP280;46580;52.114;11.674;2022-09-20T18:06:25;101695.91;;;13.92
60731;BMP280;46580;52.114;11.674;2022-09-20T18:08:53;101691.09;;;13.87
60731;BMP280;46580;52.114;11.674;2022-09-20T18:11:21;101706.81;;;13.84
60731;BMP280;46580;52.114;11.674;2022-09-20T18:13:47;101701.97;;;13.80
60731;BMP280;46580;52.114;11.674;2022-09-20T18:16:14;101715.22;;;13.75
60731;BMP280;46580;52.114;11.674;2022-09-20T18:18:41;101725.75;;;13.62
60731;BMP280;46580;52.114;11.674;2022-09-20T18:21:10;101722.19;;;13.52
60731;BMP280;46580;52.114;11.674;2022-09-20T18:23:36;101718.50;;;13.44
60731;BMP280;46580;52.114;11.674;2022-09-20T18:26:10;101720.00;;;13.36
60731;BMP280;46580;52.114;11.674;2022-09-20T18:31:33;101725.41;;;13.33
60731;BMP280;46580;52.114;11.674;2022-09-20T18:34:06;101731.53;;;13.20
60731;BMP280;46580;52.114;11.674;2022-09-20T18:36:35;101734.78;;;13.11
60731;BMP280;46580;52.114;11.674;2022-09-20T18:39:02;101734.78;;;13.11
60731;BMP280;46580;52.114;11.674;2022-09-20T18:41:29;101747.31;;;13.04
60731;BMP280;46580;52.114;11.674;2022-09-20T18:44:04;101746.47;;;13.04
60731;BMP280;46580;52.114;11.674;2022-09-20T18:46:31;101753.59;;;13.01
60731;BMP280;46580;52.114;11.674;2022-09-20T18:48:59;101747.94;;;12.96
60731;BMP280;46580;52.114;11.674;2022-09-20T18:51:27;101750.94;;;12.90
60731;BMP280;46580;52.114;11.674;2022-09-20T18:53:53;101749.72;;;12.83
60731;BMP280;46580;52.114;11.674;2022-09-20T18:56:31;101757.69;;;12.80
60731;BMP280;46580;52.114;11.674;2022-09-20T18:59:00;101767.72;;;12.72
60731;BMP280;46580;52.114;11.674;2022-09-20T19:10:52;101765.44;;;12.80
60731;BMP280;46580;52.114;11.674;2022-09-20T19:15:57;101768.34;;;12.64
60731;BMP280;46580;52.114;11.674;2022-09-20T19:21:20;101781.84;;;12.55
60731;BMP280;46580;52.114;11.674;2022-09-20T19:24:23;101775.25;;;12.51
60731;BMP280;46580;52.114;11.674;2022-09-20T19:26:52;101780.41;;;12.51
60731;BMP280;46580;52.114;11.674;2022-09-20T19:29:20;101783.72;;;12.53
60731;BMP280;46580;52.114;11.674;2022-09-20T19:31:48;101773.38;;;12.53
60731;BMP280;46580;52.114;11.674;2022-09-20T19:34:18;101784.31;;;12.44